Time;durP1;ratioP1;P1;durP2;ratioP2;P2;SDS_P1;SDS_P2;PMS_P1;PMS_P2;Temp;Humidity;BMP_temperature;BMP_pressure;BME280_temperature;BME280_humidity;BME280_pressure;Samples;Min_cycle;Max_cycle;Signal;HPM_P1;HPM_P2
2022/05/25 00:00:57;;;;;;;12.35;10.13;;;;;;;16.28;100.00;97237.63;5090955;28;20454;-83
2022/05/25 00:03:22;;;;;;;11.98;9.65;;;;;;;16.24;100.00;97239.72;5090473;28;20024;-84
2022/05/25 00:05:48;;;;;;;15.45;9.43;;;;;;;16.21;100.00;97225.69;5089555;28;20077;-83
2022/05/25 00:08:14;;;;;;;15.95;9.27;;;;;;;16.20;100.00;97229.38;5091099;28;20044;-83
2022/05/25 00:10:40;;;;;;;19.70;9.88;;;;;;;16.21;100.00;97233.78;5090757;28;20020;-83
2022/05/25 00:13:06;;;;;;;11.98;9.60;;;;;;;16.17;100.00;97237.75;5090517;28;20081;-82
2022/05/25 00:15:32;;;;;;;17.02;9.27;;;;;;;16.19;100.00;97246.53;5090799;28;20028;-83
2022/05/25 00:17:58;;;;;;;12.82;9.30;;;;;;;16.16;100.00;97236.88;5107064;28;20027;-83
2022/05/25 00:20:23;;;;;;;12.45;9.52;;;;;;;16.15;100.00;97228.94;5067976;28;20048;-83
2022/05/25 00:22:53;;;;;;;15.70;10.00;;;;;;;16.13;100.00;97230.91;5090918;28;20066;-84
2022/05/25 00:25:29;;;;;;;11.85;9.65;;;;;;;16.09;100.00;97229.44;5073601;28;20023;-83
2022/05/25 00:27:55;;;;;;;14.02;9.88;;;;;;;16.08;100.00;97233.16;5090431;28;20036;-83
2022/05/25 00:30:24;;;;;;;12.32;10.18;;;;;;;16.01;100.00;97235.53;5090492;28;20115;-83
2022/05/25 00:32:50;;;;;;;12.65;9.43;;;;;;;16.01;100.00;97234.69;5090193;28;20035;-83
2022/05/25 00:35:19;;;;;;;20.20;9.65;;;;;;;16.04;100.00;97235.28;5089930;28;20028;-83
2022/05/25 00:37:44;;;;;;;15.55;10.55;;;;;;;16.00;100.00;97235.66;5089932;28;20036;-83
2022/05/25 00:40:17;;;;;;;12.88;10.43;;;;;;;15.93;100.00;97229.13;5073310;28;20395;-84
2022/05/25 00:42:43;;;;;;;17.30;11.70;;;;;;;15.93;100.00;97224.59;5090391;28;20456;-84
2022/05/25 00:45:09;;;;;;;14.82;11.40;;;;;;;15.97;100.00;97235.94;5073184;28;20069;-83
2022/05/25 00:47:37;;;;;;;15.38;11.93;;;;;;;15.97;100.00;97235.94;5089526;28;20497;-82
2022/05/25 00:50:04;;;;;;;19.00;10.80;;;;;;;16.01;100.00;97240.09;5090791;28;20020;-83
2022/05/25 00:52:30;;;;;;;17.52;11.07;;;;;;;16.01;100.00;97240.94;5107467;28;20012;-84
2022/05/25 00:55:01;;;;;;;16.63;10.55;;;;;;;15.96;100.00;97239.66;5090513;28;20046;-84
2022/05/25 00:57:31;;;;;;;14.73;10.20;;;;;;;15.92;100.00;97239.06;5089728;28;20173;-84
2022/05/25 01:00:08;;;;;;;15.60;11.00;;;;;;;15.91;100.00;97245.44;5089446;28;20103;-84
2022/05/25 01:02:41;;;;;;;15.30;10.75;;;;;;;15.93;100.00;97243.47;5088289;28;20116;-84
2022/05/25 01:05:06;;;;;;;;;;;;;;;15.88;100.00;97248.41;5073310;28;20051;-85
2022/05/25 01:07:50;;;;;;;11.00;9.32;;;;;;;15.82;100.00;97246.25;5089718;28;19916;-84
2022/05/25 01:10:16;;;;;;;15.95;10.13;;;;;;;15.75;100.00;97246.94;5088807;28;20048;-84
2022/05/25 01:12:44;;;;;;;12.50;9.77;;;;;;;15.67;100.00;97240.34;5090394;28;20032;-84
2022/05/25 01:15:29;;;;;;;16.00;9.70;;;;;;;15.50;100.00;97250.91;5089005;28;20112;-84
2022/05/25 01:18:06;;;;;;;15.40;10.30;;;;;;;15.39;100.00;97251.78;5087738;28;20020;-84
2022/05/25 01:20:54;;;;;;;15.98;10.48;;;;;;;15.38;100.00;97250.06;5087283;28;20491;-84
2022/05/25 01:23:41;;;;;;;15.85;11.27;;;;;;;15.26;100.00;97251.13;5085321;28;20123;-84
2022/05/25 01:26:21;;;;;;;19.05;11.55;;;;;;;15.24;100.00;97250.41;5089985;28;20491;-84
2022/05/25 01:29:02;;;;;;;16.10;11.02;;;;;;;15.28;100.00;97249.16;5090431;28;20449;-83
2022/05/25 01:31:51;;;;;;;14.23;10.93;;;;;;;15.24;100.00;97253.09;5090715;28;20391;-84
2022/05/25 01:34:22;;;;;;;13.77;11.23;;;;;;;15.13;100.00;97250.47;5072424;28;20522;-83
2022/05/25 01:36:55;;;;;;;16.40;11.70;;;;;;;15.07;100.00;97257.22;5090853;28;20407;-84
2022/05/25 01:39:31;;;;;;;22.58;11.60;;;;;;;15.05;100.00;97256.50;5088753;28;20372;-84
2022/05/25 01:42:05;;;;;;;18.27;11.38;;;;;;;15.07;100.00;97261.78;5089589;28;20056;-83
2022/05/25 01:44:44;;;;;;;19.77;11.15;;;;;;;14.98;100.00;97262.56;5089319;28;20492;-83
2022/05/25 01:47:10;;;;;;;17.02;11.70;;;;;;;14.92;100.00;97260.38;5106577;28;20027;-85
2022/05/25 01:49:52;;;;;;;14.75;11.77;;;;;;;14.90;100.00;97259.63;5089323;28;20070;-84
2022/05/25 01:52:20;;;;;;;14.77;11.55;;;;;;;14.93;100.00;97262.06;5080999;28;20028;-84
2022/05/25 01:54:58;;;;;;;15.73;11.77;;;;;;;14.85;100.00;97264.56;5089393;28;20031;-83
2022/05/25 01:57:26;;;;;;;20.17;12.00;;;;;;;14.75;100.00;97256.38;5090055;28;20046;-84
2022/05/25 01:59:52;;;;;;;18.15;12.30;;;;;;;14.79;100.00;97259.69;5092582;28;20028;-84
2022/05/25 02:05:09;;;;;;;21.35;14.32;;;;;;;14.81;100.00;97255.88;5079390;28;20092;-83
2022/05/25 02:08:03;;;;;;;20.33;13.60;;;;;;;14.83;100.00;97263.81;5075558;28;20392;-85
2022/05/25 02:11:07;;;;;;;17.98;12.75;;;;;;;14.82;100.00;97272.88;5088216;28;20070;-85
2022/05/25 02:13:49;;;;;;;19.25;13.38;;;;;;;14.87;100.00;97268.81;5116216;27;20109;-85
2022/05/25 02:16:36;;;;;;;24.63;14.20;;;;;;;14.88;100.00;97278.63;5110055;28;20028;-82
2022/05/25 02:19:07;;;;;;;22.27;12.73;;;;;;;14.93;100.00;97275.53;5092199;28;20127;-82
2022/05/25 02:21:45;;;;;;;15.97;12.43;;;;;;;14.90;100.00;97283.88;5093801;28;20085;-83
2022/05/25 02:24:22;;;;;;;19.77;12.50;;;;;;;14.93;100.00;97276.38;5093529;28;20031;-82
2022/05/25 02:27:00;;;;;;;18.10;12.88;;;;;;;14.92;100.00;97279.22;5093596;28;20039;-83
2022/05/25 02:29:37;;;;;;;23.92;13.63;;;;;;;14.90;100.00;97278.47;5109470;28;20523;-84
2022/05/25 02:32:39;;;;;;;22.83;13.43;;;;;;;14.88;100.00;97291.22;5092263;28;20463;-84
2022/05/25 02:35:05;;;;;;;21.92;13.05;;;;;;;14.87;100.00;97293.06;5082524;28;20044;-84
2022/05/25 02:37:31;;;;;;;21.77;13.98;;;;;;;14.83;100.00;97301.50;5108843;28;20467;-84
2022/05/25 02:39:59;;;;;;;25.05;15.00;;;;;;;14.84;100.00;97292.47;5075385;28;20418;-84
2022/05/25 02:42:25;;;;;;;23.55;14.38;;;;;;;14.92;100.00;97308.84;5092175;28;20059;-75
2022/05/25 02:44:51;;;;;;;21.30;12.93;;;;;;;14.82;100.00;97302.50;5091824;28;20444;-74
2022/05/25 02:47:16;;;;;;;22.52;13.25;;;;;;;14.80;100.00;97307.16;5074826;28;20031;-75
2022/05/25 02:49:42;;;;;;;20.23;12.50;;;;;;;14.77;100.00;97308.25;5091818;28;20023;-74
2022/05/25 02:52:09;;;;;;;22.73;12.18;;;;;;;14.76;100.00;97305.72;5091769;28;20086;-75
2022/05/25 02:54:35;;;;;;;19.95;12.02;;;;;;;14.73;100.00;97314.03;5091543;28;20028;-74
2022/05/25 02:57:01;;;;;;;15.88;11.20;;;;;;;14.76;100.00;97317.34;5091595;28;20028;-74
2022/05/25 02:59:26;;;;;;;17.23;11.32;;;;;;;14.77;100.00;97318.19;5091471;28;20036;-75
2022/05/25 03:01:52;;;;;;;23.38;11.35;;;;;;;14.82;100.00;97313.28;5092070;28;20020;-84
2022/05/25 03:04:18;;;;;;;15.70;10.07;;;;;;;14.86;100.00;97318.28;5092118;28;20501;-83
2022/05/25 03:06:43;;;;;;;14.98;10.32;;;;;;;14.81;100.00;97316.94;5091510;28;20051;-83
2022/05/25 03:09:09;;;;;;;14.57;10.52;;;;;;;14.81;100.00;97311.56;5107533;28;20032;-84
2022/05/25 03:11:35;;;;;;;18.75;10.80;;;;;;;14.72;100.00;97309.63;5091548;28;20448;-82
2022/05/25 03:14:00;;;;;;;13.82;10.35;;;;;;;14.80;100.00;97326.00;5091727;28;20020;-83
2022/05/25 03:16:26;;;;;;;20.90;11.90;;;;;;;14.77;100.00;97319.03;5091372;28;20495;-83
2022/05/25 03:18:51;;;;;;;17.55;10.98;;;;;;;14.72;100.00;97325.78;5091460;28;20022;-83
2022/05/25 03:21:18;;;;;;;18.90;11.65;;;;;;;14.66;100.00;97321.75;5091237;28;20062;-83
2022/05/25 03:23:44;;;;;;;23.33;12.75;;;;;;;14.59;100.00;97320.53;5092496;28;20028;-82
2022/05/25 03:26:09;;;;;;;21.58;12.88;;;;;;;14.59;100.00;97320.53;5091506;28;20032;-84
2022/05/25 03:28:36;;;;;;;23.70;13.05;;;;;;;14.68;100.00;97332.41;5074497;28;20023;-84
2022/05/25 03:31:02;;;;;;;17.42;12.98;;;;;;;14.68;100.00;97346.72;5091376;28;20093;-83
2022/05/25 03:33:28;;;;;;;21.65;13.70;;;;;;;14.77;100.00;97348.66;5107990;28;20024;-83
2022/05/25 03:35:53;;;;;;;22.20;14.60;;;;;;;14.82;100.00;97351.00;5090954;28;20210;-84
2022/05/25 03:38:19;;;;;;;23.33;14.35;;;;;;;14.93;100.00;97342.88;5090889;28;20032;-82
2022/05/25 03:40:45;;;;;;;20.65;13.02;;;;;;;15.00;100.00;97350.31;5082678;28;20523;-82
2022/05/25 03:43:12;;;;;;;19.17;13.75;;;;;;;15.06;100.00;97362.44;5091147;28;20031;-83
2022/05/25 03:45:38;;;;;;;20.83;12.82;;;;;;;15.18;100.00;97367.66;5073987;28;20487;-83
2022/05/25 03:48:07;;;;;;;20.50;11.77;;;;;;;15.29;100.00;97361.34;5091958;28;20024;-83
2022/05/25 03:50:36;;;;;;;16.75;12.15;;;;;;;15.51;100.00;97369.38;5090821;28;20472;-82
2022/05/25 03:53:02;;;;;;;24.63;11.90;;;;;;;15.70;100.00;97374.06;5074001;28;20024;-83
2022/05/25 03:55:28;;;;;;;17.42;10.35;;;;;;;15.80;100.00;97371.44;5090647;28;20051;-81
2022/05/25 03:57:54;;;;;;;17.60;10.70;;;;;;;15.84;100.00;97367.50;5073757;28;20027;-82
2022/05/25 04:00:19;;;;;;;27.10;11.23;;;;;;;15.72;100.00;97367.56;5090874;28;20024;-83
2022/05/25 04:02:46;;;;;;;20.17;12.15;;;;;;;15.63;100.00;97379.13;5092260;28;20518;-83
2022/05/25 04:05:12;;;;;;;22.05;11.60;;;;;;;15.68;100.00;97367.97;5090814;28;20024;-83
2022/05/25 04:07:43;;;;;;;24.98;12.32;;;;;;;15.65;100.00;97382.56;5107122;28;20139;-82
2022/05/25 04:10:12;;;;;;;30.60;13.73;;;;;;;15.70;100.00;97364.13;5090459;28;20048;-83
2022/05/25 04:12:40;;;;;;;22.40;12.40;;;;;;;15.82;100.00;97380.25;5090512;28;20395;-83
2022/05/25 04:15:06;;;;;;;22.90;12.73;;;;;;;15.86;100.00;97363.69;5090752;28;20070;-83
2022/05/25 04:17:32;;;;;;;22.35;12.52;;;;;;;16.01;100.00;97372.28;5090530;28;20031;-83
2022/05/25 04:19:58;;;;;;;18.08;11.15;;;;;;;16.00;100.00;97370.56;5088875;28;20167;-83
2022/05/25 04:22:24;;;;;;;15.25;11.82;;;;;;;16.04;100.00;97367.50;5089912;28;20067;-83
2022/05/25 04:24:50;;;;;;;31.35;13.10;;;;;;;16.15;100.00;97367.41;5090390;28;20024;-84
2022/05/25 04:27:16;;;;;;;21.33;12.18;;;;;;;16.22;100.00;97367.72;5090469;28;20032;-84
2022/05/25 04:29:42;;;;;;;60.28;33.72;;;;;;;16.51;100.00;97371.44;5090492;28;20028;-84
2022/05/25 04:32:08;;;;;;;21.77;12.18;;;;;;;16.60;100.00;97357.13;5090133;28;20028;-84
2022/05/25 04:34:33;;;;;;;36.85;15.80;;;;;;;17.08;100.00;97369.91;5090477;28;20073;-84
2022/05/25 04:37:48;;;;;;;28.00;12.30;;;;;;;17.23;100.00;97368.50;5089285;28;20093;-74
2022/05/25 04:39:44;;;;;;;21.17;13.70;;;;;;;17.41;100.00;97374.09;5089475;28;20028;-74
2022/05/25 04:42:10;;;;;;;50.60;29.00;;;;;;;17.43;100.00;97372.94;5105980;28;20085;-75
2022/05/25 04:44:36;;;;;;;18.77;11.80;;;;;;;17.46;100.00;97360.97;5089668;28;20024;-75
2022/05/25 04:47:02;;;;;;;22.55;12.60;;;;;;;17.46;100.00;97364.56;5089403;28;20020;-75
2022/05/25 04:49:28;;;;;;;22.70;13.25;;;;;;;17.24;100.00;97364.81;5077685;28;20034;-76
2022/05/25 04:51:54;;;;;;;27.60;13.40;;;;;;;17.39;100.00;97360.69;5089202;28;20046;-76
2022/05/25 04:54:19;;;;;;;29.20;14.25;;;;;;;17.25;100.00;97361.13;5089173;28;20106;-76
2022/05/25 04:59:29;;;;;;;19.33;12.27;;;;;;;19.95;91.75;97374.34;5089635;28;20055;-75
2022/05/25 05:01:54;;;;;;;24.98;11.57;;;;;;;20.78;85.59;97375.59;5088554;28;20472;-76
2022/05/25 05:04:20;;;;;;;20.42;11.73;;;;;;;21.05;82.16;97380.81;5089110;28;20115;-74
2022/05/25 05:06:47;;;;;;;17.67;12.85;;;;;;;20.87;81.60;97380.06;5088982;28;20063;-74
2022/05/25 05:09:13;;;;;;;15.95;11.48;;;;;;;21.35;78.77;97375.84;5105577;28;20035;-73
2022/05/25 05:11:38;;;;;;;21.10;11.43;;;;;;;21.03;80.48;97382.84;5089305;28;20407;-74
2022/05/25 05:14:04;;;;;;;20.98;11.85;;;;;;;20.78;81.32;97378.31;5088876;28;20031;-74
2022/05/25 05:16:29;;;;;;;24.90;12.18;;;;;;;21.41;80.00;97380.63;5088975;28;20031;-74
2022/05/25 05:18:55;;;;;;;16.17;11.23;;;;;;;22.85;72.10;97373.47;5088809;28;20112;-74
2022/05/25 05:21:20;;;;;;;17.00;11.65;;;;;;;23.92;67.06;97392.72;5088476;28;20038;-75
2022/05/25 05:23:46;;;;;;;18.20;11.23;;;;;;;25.08;60.00;97384.97;5089183;28;20028;-74
2022/05/25 05:26:13;;;;;;;19.20;11.07;;;;;;;25.23;59.24;97381.19;5089157;28;20079;-75
2022/05/25 05:28:41;;;;;;;16.25;10.75;;;;;;;25.76;57.62;97374.50;5072087;28;20414;-75
2022/05/25 05:31:08;;;;;;;20.90;11.10;;;;;;;26.61;54.11;97381.88;5088504;28;20031;-75
2022/05/25 05:33:34;;;;;;;21.67;10.50;;;;;;;27.06;52.43;97381.34;5108456;28;20024;-74
2022/05/25 05:36:20;;;;;;;22.27;13.82;;;;;;;28.63;49.20;97380.16;5110139;28;20131;-75
2022/05/25 05:38:52;;;;;;;15.27;9.75;;;;;;;29.20;46.36;97366.53;5092834;28;20461;-76
2022/05/25 05:41:20;;;;;;;37.28;19.58;;;;;;;29.55;46.17;97378.94;5072224;28;20028;-76
2022/05/25 05:43:46;;;;;;;24.75;12.55;;;;;;;28.86;47.09;97380.56;5092307;28;20060;-75
2022/05/25 05:46:13;;;;;;;26.60;10.73;;;;;;;28.84;46.83;97379.97;5092973;28;20480;-75
2022/05/25 05:48:38;;;;;;;24.85;12.52;;;;;;;28.14;48.37;97397.06;5089347;28;20114;-75
2022/05/25 05:51:05;;;;;;;11.15;9.55;;;;;;;27.39;49.94;97403.50;5092712;28;20058;-75
2022/05/25 05:53:31;;;;;;;19.98;9.55;;;;;;;28.42;47.79;97386.72;5092528;28;20032;-75
2022/05/25 05:55:58;;;;;;;16.23;11.25;;;;;;;28.38;47.91;97380.78;5075558;28;20024;-75
2022/05/25 05:58:23;;;;;;;45.20;13.00;;;;;;;29.03;47.17;97390.97;5092569;28;20059;-75
2022/05/25 06:00:49;;;;;;;18.23;9.93;;;;;;;29.73;44.73;97382.91;5092180;28;20110;-75
